Bayou Rouge, Louisiana
Current Conditions -  °F | °C
As of 1:55 PM on Saturday 25 Oct 2014 (Local Time) from KHZR Reporting Station
Clear Clear  
Wind Chill: 79°   Ceiling: Unl
Heat Index: 79°   Visibility: 10mi
Dew Point: 52°   Wind: 3mph
Humidity: 39%   Direction: 310°NW
Pressure: 30.12"   Gusts: NA
Location:  30.6648°N, 91.7944°W
Report Text: KHZR 251855Z AUTO 31003KT 10SM CLR 26/11 A3012 RMK AO2 T02590109
Loading
Personal Weather Stations






























Interactive Weather Map
Tropical Storm Tracking
New forecast layout! Learn more

10-Day Weather Forecast

Advertisements
Track Severe Weather on mobile